sensor_id;sensor_type;location;lat;lon;timestamp;temperature;humidity
31991;DHT22;18508;49.386;8.370;2023-05-15T00:01:59;13.40;99.90
31991;DHT22;18508;49.386;8.370;2023-05-15T00:04:27;13.40;99.90
31991;DHT22;18508;49.386;8.370;2023-05-15T00:06:55;13.30;99.90
31991;DHT22;18508;49.386;8.370;2023-05-15T00:09:25;13.30;99.90
31991;DHT22;18508;49.386;8.370;2023-05-15T00:11:53;13.30;99.90
31991;DHT22;18508;49.386;8.370;2023-05-15T00:14:21;13.30;99.90
31991;DHT22;18508;49.386;8.370;2023-05-15T00:16:52;13.30;99.90
31991;DHT22;18508;49.386;8.370;2023-05-15T00:19:20;13.30;99.90
31991;DHT22;18508;49.386;8.370;2023-05-15T00:21:48;13.30;99.90
31991;DHT22;18508;49.386;8.370;2023-05-15T00:24:16;13.20;99.90
31991;DHT22;18508;49.386;8.370;2023-05-15T00:26:47;13.20;99.90
31991;DHT22;18508;49.386;8.370;2023-05-15T00:29:15;13.20;99.90
31991;DHT22;18508;49.386;8.370;2023-05-15T00:31:44;13.20;99.90
31991;DHT22;18508;49.386;8.370;2023-05-15T00:34:13;13.20;99.90
31991;DHT22;18508;49.386;8.370;2023-05-15T00:36:43;13.20;99.90
31991;DHT22;18508;49.386;8.370;2023-05-15T00:39:11;13.10;99.90
31991;DHT22;18508;49.386;8.370;2023-05-15T00:41:40;13.10;99.90
31991;DHT22;18508;49.386;8.370;2023-05-15T00:44:10;13.10;99.90
31991;DHT22;18508;49.386;8.370;2023-05-15T00:46:39;13.10;99.90
31991;DHT22;18508;49.386;8.370;2023-05-15T00:49:09;13.10;99.90
31991;DHT22;18508;49.386;8.370;2023-05-15T00:51:40;13.00;99.90
31991;DHT22;18508;49.386;8.370;2023-05-15T00:54:09;13.00;99.90
31991;DHT22;18508;49.386;8.370;2023-05-15T00:56:38;13.00;99.90
31991;DHT22;18508;49.386;8.370;2023-05-15T00:59:07;13.00;99.90
31991;DHT22;18508;49.386;8.370;2023-05-15T01:01:41;12.90;99.90
31991;DHT22;18508;49.386;8.370;2023-05-15T01:04:11;12.90;99.90
31991;DHT22;18508;49.386;8.370;2023-05-15T01:06:41;12.90;99.90
31991;DHT22;18508;49.386;8.370;2023-05-15T01:09:09;12.90;99.90
31991;DHT22;18508;49.386;8.370;2023-05-15T01:11:38;12.80;99.90
31991;DHT22;18508;49.386;8.370;2023-05-15T01:14:08;12.80;99.90
31991;DHT22;18508;49.386;8.370;2023-05-15T01:16:36;12.80;99.90
31991;DHT22;18508;49.386;8.370;2023-05-15T01:19:08;12.70;99.90
31991;DHT22;18508;49.386;8.370;2023-05-15T01:24:56;12.70;99.90
31991;DHT22;18508;49.386;8.370;2023-05-15T01:27:34;12.60;99.90
31991;DHT22;18508;49.386;8.370;2023-05-15T01:30:09;12.60;99.90
31991;DHT22;18508;49.386;8.370;2023-05-15T01:32:51;12.60;99.90
31991;DHT22;18508;49.386;8.370;2023-05-15T01:35:25;12.60;99.90
31991;DHT22;18508;49.386;8.370;2023-05-15T01:38:14;12.50;99.90
31991;DHT22;18508;49.386;8.370;2023-05-15T01:40:46;12.50;99.90
31991;DHT22;18508;49.386;8.370;2023-05-15T01:43:20;12.40;99.90
31991;DHT22;18508;49.386;8.370;2023-05-15T01:45:48;12.40;99.90
31991;DHT22;18508;49.386;8.370;2023-05-15T01:48:18;12.40;99.90
31991;DHT22;18508;49.386;8.370;2023-05-15T01:50:49;12.40;99.90
31991;DHT22;18508;49.386;8.370;2023-05-15T01:53:19;12.40;99.90
31991;DHT22;18508;49.386;8.370;2023-05-15T01:55:47;12.40;99.90
31991;DHT22;18508;49.386;8.370;2023-05-15T01:58:18;12.40;99.90
31991;DHT22;18508;49.386;8.370;2023-05-15T02:00:48;12.30;99.90
31991;DHT22;18508;49.386;8.370;2023-05-15T02:03:17;12.40;99.90
31991;DHT22;18508;49.386;8.370;2023-05-15T02:05:46;12.30;99.90
31991;DHT22;18508;49.386;8.370;2023-05-15T02:08:19;12.30;99.90
31991;DHT22;18508;49.386;8.370;2023-05-15T02:10:48;12.30;99.90
31991;DHT22;18508;49.386;8.370;2023-05-15T02:13:19;12.30;99.90
31991;DHT22;18508;49.386;8.370;2023-05-15T02:15:48;12.20;99.90
31991;DHT22;18508;49.386;8.370;2023-05-15T02:18:15;12.20;99.90
31991;DHT22;18508;49.386;8.370;2023-05-15T02:20:44;12.10;99.90
31991;DHT22;18508;49.386;8.370;2023-05-15T02:23:12;12.00;99.90
31991;DHT22;18508;49.386;8.370;2023-05-15T02:25:48;12.00;99.90
31991;DHT22;18508;49.386;8.370;2023-05-15T02:28:25;12.00;99.90
31991;DHT22;18508;49.386;8.370;2023-05-15T02:30:59;12.00;99.90
31991;DHT22;18508;49.386;8.370;2023-05-15T02:33:28;12.00;99.90
31991;DHT22;18508;49.386;8.370;2023-05-15T02:36:00;12.00;99.90
31991;DHT22;18508;49.386;8.370;2023-05-15T02:38:32;12.00;99.90
31991;DHT22;18508;49.386;8.370;2023-05-15T02:41:05;12.00;99.90
31991;DHT22;18508;49.386;8.370;2023-05-15T02:43:35;12.00;99.90
31991;DHT22;18508;49.386;8.370;2023-05-15T02:46:06;11.90;99.90
31991;DHT22;18508;49.386;8.370;2023-05-15T02:48:37;11.90;99.90
31991;DHT22;18508;49.386;8.370;2023-05-15T02:51:07;11.80;99.90
31991;DHT22;18508;49.386;8.370;2023-05-15T02:53:38;11.70;99.90
31991;DHT22;18508;49.386;8.370;2023-05-15T02:56:10;11.70;99.90
31991;DHT22;18508;49.386;8.370;2023-05-15T02:58:40;11.60;99.90
31991;DHT22;18508;49.386;8.370;2023-05-15T03:01:08;11.50;99.90
31991;DHT22;18508;49.386;8.370;2023-05-15T03:03:36;11.40;99.90
31991;DHT22;18508;49.386;8.370;2023-05-15T03:06:04;11.40;99.90
31991;DHT22;18508;49.386;8.370;2023-05-15T03:08:33;11.40;99.90
31991;DHT22;18508;49.386;8.370;2023-05-15T03:11:01;11.30;99.90
31991;DHT22;18508;49.386;8.370;2023-05-15T03:13:29;11.30;99.90
31991;DHT22;18508;49.386;8.370;2023-05-15T03:16:03;11.20;99.90
31991;DHT22;18508;49.386;8.370;2023-05-15T03:18:31;11.20;99.90
31991;DHT22;18508;49.386;8.370;2023-05-15T03:20:59;11.20;99.90
31991;DHT22;18508;49.386;8.370;2023-05-15T03:23:27;11.10;99.90
31991;DHT22;18508;49.386;8.370;2023-05-15T03:26:02;11.10;99.90
31991;DHT22;18508;49.386;8.370;2023-05-15T03:28:31;11.00;99.90
31991;DHT22;18508;49.386;8.370;2023-05-15T03:30:59;11.00;99.90
31991;DHT22;18508;49.386;8.370;2023-05-15T03:33:32;10.90;99.90
31991;DHT22;18508;49.386;8.370;2023-05-15T03:36:06;10.80;99.90
31991;DHT22;18508;49.386;8.370;2023-05-15T03:38:38;10.80;99.90
31991;DHT22;18508;49.386;8.370;2023-05-15T03:41:07;10.80;99.90
31991;DHT22;18508;49.386;8.370;2023-05-15T03:43:35;10.70;99.90
31991;DHT22;18508;49.386;8.370;2023-05-15T03:46:03;10.70;99.90
31991;DHT22;18508;49.386;8.370;2023-05-15T03:48:33;10.70;99.90
31991;DHT22;18508;49.386;8.370;2023-05-15T03:51:04;10.80;99.90
31991;DHT22;18508;49.386;8.370;2023-05-15T03:53:36;10.80;99.90
31991;DHT22;18508;49.386;8.370;2023-05-15T03:56:04;10.90;99.90
31991;DHT22;18508;49.386;8.370;2023-05-15T03:58:33;10.80;99.90
31991;DHT22;18508;49.386;8.370;2023-05-15T04:01:01;10.90;99.90
31991;DHT22;18508;49.386;8.370;2023-05-15T04:03:30;10.90;99.90
31991;DHT22;18508;49.386;8.370;2023-05-15T04:05:59;10.90;99.90
31991;DHT22;18508;49.386;8.370;2023-05-15T04:08:27;10.90;99.90
31991;DHT22;18508;49.386;8.370;2023-05-15T04:10:58;10.80;99.90
31991;DHT22;18508;49.386;8.370;2023-05-15T04:13:28;10.80;99.90
31991;DHT22;18508;49.386;8.370;2023-05-15T04:15:59;10.80;99.90
31991;DHT22;18508;49.386;8.370;2023-05-15T04:18:28;10.70;99.90
31991;DHT22;18508;49.386;8.370;2023-05-15T04:20:56;10.80;99.90
31991;DHT22;18508;49.386;8.370;2023-05-15T04:23:25;10.70;99.90
31991;DHT22;18508;49.386;8.370;2023-05-15T04:25:53;10.70;99.90
31991;DHT22;18508;49.386;8.370;2023-05-15T04:28:22;10.70;99.90
31991;DHT22;18508;49.386;8.370;2023-05-15T04:30:52;10.70;99.90
31991;DHT22;18508;49.386;8.370;2023-05-15T04:33:19;10.80;99.90
31991;DHT22;18508;49.386;8.370;2023-05-15T04:35:51;10.80;99.90
31991;DHT22;18508;49.386;8.370;2023-05-15T04:38:20;10.80;99.90
31991;DHT22;18508;49.386;8.370;2023-05-15T04:40:49;10.90;99.90
31991;DHT22;18508;49.386;8.370;2023-05-15T04:43:17;10.90;99.90
31991;DHT22;18508;49.386;8.370;2023-05-15T04:45:45;11.00;99.90
31991;DHT22;18508;49.386;8.370;2023-05-15T04:48:14;11.20;99.90
31991;DHT22;18508;49.386;8.370;2023-05-15T04:50:43;11.20;99.90
31991;DHT22;18508;49.386;8.370;2023-05-15T04:53:12;11.30;99.90
31991;DHT22;18508;49.386;8.370;2023-05-15T04:55:40;11.40;99.90
31991;DHT22;18508;49.386;8.370;2023-05-15T04:58:12;11.50;99.90
31991;DHT22;18508;49.386;8.370;2023-05-15T05:00:40;11.60;99.90
31991;DHT22;18508;49.386;8.370;2023-05-15T05:03:08;11.70;99.90
31991;DHT22;18508;49.386;8.370;2023-05-15T05:05:37;11.80;99.90
31991;DHT22;18508;49.386;8.370;2023-05-15T05:08:09;12.00;99.90
31991;DHT22;18508;49.386;8.370;2023-05-15T05:10:37;12.10;99.90
31991;DHT22;18508;49.386;8.370;2023-05-15T05:13:05;12.20;99.90
31991;DHT22;18508;49.386;8.370;2023-05-15T05:15:34;12.40;99.90
31991;DHT22;18508;49.386;8.370;2023-05-15T05:18:03;12.50;99.90
31991;DHT22;18508;49.386;8.370;2023-05-15T05:20:34;12.50;99.90
31991;DHT22;18508;49.386;8.370;2023-05-15T05:23:02;12.50;99.90
31991;DHT22;18508;49.386;8.370;2023-05-15T05:25:30;12.60;99.90
31991;DHT22;18508;49.386;8.370;2023-05-15T05:27:58;12.60;99.90
31991;DHT22;18508;49.386;8.370;2023-05-15T05:30:26;12.70;99.90
31991;DHT22;18508;49.386;8.370;2023-05-15T05:32:56;12.70;99.90
31991;DHT22;18508;49.386;8.370;2023-05-15T05:35:24;12.70;99.90
31991;DHT22;18508;49.386;8.370;2023-05-15T05:37:53;12.80;99.90
31991;DHT22;18508;49.386;8.370;2023-05-15T05:40:22;13.00;99.90
31991;DHT22;18508;49.386;8.370;2023-05-15T05:42:50;13.20;99.90
31991;DHT22;18508;49.386;8.370;2023-05-15T05:45:20;13.20;99.90
31991;DHT22;18508;49.386;8.370;2023-05-15T05:47:48;13.40;99.90
31991;DHT22;18508;49.386;8.370;2023-05-15T05:50:18;13.50;99.90
31991;DHT22;18508;49.386;8.370;2023-05-15T05:52:46;13.60;99.90
31991;DHT22;18508;49.386;8.370;2023-05-15T05:55:14;13.70;99.90
31991;DHT22;18508;49.386;8.370;2023-05-15T05:57:42;13.80;99.90
31991;DHT22;18508;49.386;8.370;2023-05-15T06:00:11;13.80;99.90
31991;DHT22;18508;49.386;8.370;2023-05-15T06:02:39;13.80;99.90
31991;DHT22;18508;49.386;8.370;2023-05-15T06:05:15;13.90;99.90
31991;DHT22;18508;49.386;8.370;2023-05-15T06:07:45;13.90;99.90
31991;DHT22;18508;49.386;8.370;2023-05-15T06:10:13;15.30;99.90
31991;DHT22;18508;49.386;8.370;2023-05-15T06:12:41;13.90;99.90
31991;DHT22;18508;49.386;8.370;2023-05-15T06:15:10;13.90;99.90
31991;DHT22;18508;49.386;8.370;2023-05-15T06:17:39;14.00;77.90
31991;DHT22;18508;49.386;8.370;2023-05-15T06:20:08;14.10;90.80
31991;DHT22;18508;49.386;8.370;2023-05-15T06:22:38;14.20;20.70
31991;DHT22;18508;49.386;8.370;2023-05-15T06:25:09;14.40;99.90
31991;DHT22;18508;49.386;8.370;2023-05-15T06:27:40;14.70;86.60
31991;DHT22;18508;49.386;8.370;2023-05-15T06:30:09;14.20;25.20
31991;DHT22;18508;49.386;8.370;2023-05-15T06:32:38;14.70;22.60
31991;DHT22;18508;49.386;8.370;2023-05-15T06:35:09;14.90;1.00
31991;DHT22;18508;49.386;8.370;2023-05-15T06:37:37;15.00;1.00
31991;DHT22;18508;49.386;8.370;2023-05-15T06:40:08;15.30;1.00
31991;DHT22;18508;49.386;8.370;2023-05-15T06:42:36;15.70;1.00
31991;DHT22;18508;49.386;8.370;2023-05-15T06:45:05;15.80;1.00
31991;DHT22;18508;49.386;8.370;2023-05-15T06:47:34;15.70;1.00
31991;DHT22;18508;49.386;8.370;2023-05-15T06:50:03;15.80;1.00
31991;DHT22;18508;49.386;8.370;2023-05-15T06:52:31;16.00;1.00
31991;DHT22;18508;49.386;8.370;2023-05-15T06:54:59;16.10;1.00
31991;DHT22;18508;49.386;8.370;2023-05-15T06:57:29;16.10;1.00
31991;DHT22;18508;49.386;8.370;2023-05-15T06:59:57;16.20;99.90
31991;DHT22;18508;49.386;8.370;2023-05-15T07:02:25;16.20;99.90
31991;DHT22;18508;49.386;8.370;2023-05-15T07:04:53;16.20;1.00
31991;DHT22;18508;49.386;8.370;2023-05-15T07:07:23;16.00;1.00
31991;DHT22;18508;49.386;8.370;2023-05-15T07:09:51;15.90;1.00
31991;DHT22;18508;49.386;8.370;2023-05-15T07:12:19;16.00;1.00
31991;DHT22;18508;49.386;8.370;2023-05-15T07:14:49;16.10;1.00
31991;DHT22;18508;49.386;8.370;2023-05-15T07:17:17;16.00;1.00
31991;DHT22;18508;49.386;8.370;2023-05-15T07:19:45;15.80;1.00
31991;DHT22;18508;49.386;8.370;2023-05-15T07:22:14;15.80;1.00
31991;DHT22;18508;49.386;8.370;2023-05-15T07:24:42;16.00;1.00
31991;DHT22;18508;49.386;8.370;2023-05-15T07:27:11;16.00;1.00
31991;DHT22;18508;49.386;8.370;2023-05-15T07:29:39;16.00;1.00
31991;DHT22;18508;49.386;8.370;2023-05-15T07:32:08;15.90;1.00
31991;DHT22;18508;49.386;8.370;2023-05-15T07:34:36;15.90;1.00
31991;DHT22;18508;49.386;8.370;2023-05-15T07:37:05;16.10;1.00
31991;DHT22;18508;49.386;8.370;2023-05-15T07:39:33;16.20;1.00
31991;DHT22;18508;49.386;8.370;2023-05-15T07:42:03;16.20;1.00
31991;DHT22;18508;49.386;8.370;2023-05-15T07:44:31;16.30;1.00
31991;DHT22;18508;49.386;8.370;2023-05-15T07:46:59;16.50;99.90
31991;DHT22;18508;49.386;8.370;2023-05-15T07:49:29;16.50;99.90
31991;DHT22;18508;49.386;8.370;2023-05-15T07:51:57;16.60;99.90
31991;DHT22;18508;49.386;8.370;2023-05-15T07:54:25;16.50;99.90
31991;DHT22;18508;49.386;8.370;2023-05-15T07:56:53;16.50;99.90
31991;DHT22;18508;49.386;8.370;2023-05-15T07:59:21;16.50;99.90
31991;DHT22;18508;49.386;8.370;2023-05-15T08:01:49;16.70;99.90
31991;DHT22;18508;49.386;8.370;2023-05-15T08:04:18;16.90;99.90
31991;DHT22;18508;49.386;8.370;2023-05-15T08:06:47;17.00;99.90
31991;DHT22;18508;49.386;8.370;2023-05-15T08:09:15;17.10;99.90
31991;DHT22;18508;49.386;8.370;2023-05-15T08:11:43;17.30;99.90
31991;DHT22;18508;49.386;8.370;2023-05-15T08:14:11;17.30;99.90
31991;DHT22;18508;49.386;8.370;2023-05-15T08:16:40;17.30;99.90
31991;DHT22;18508;49.386;8.370;2023-05-15T08:19:08;17.30;99.90
31991;DHT22;18508;49.386;8.370;2023-05-15T08:21:36;17.40;99.90
31991;DHT22;18508;49.386;8.370;2023-05-15T08:24:07;17.60;99.90
31991;DHT22;18508;49.386;8.370;2023-05-15T08:26:39;17.60;99.90
31991;DHT22;18508;49.386;8.370;2023-05-15T08:29:07;17.70;99.90
31991;DHT22;18508;49.386;8.370;2023-05-15T08:34:06;17.90;99.90
31991;DHT22;18508;49.386;8.370;2023-05-15T08:36:34;18.00;99.90
31991;DHT22;18508;49.386;8.370;2023-05-15T08:39:04;18.10;99.90
31991;DHT22;18508;49.386;8.370;2023-05-15T08:41:39;18.30;99.90
31991;DHT22;18508;49.386;8.370;2023-05-15T08:44:09;18.40;99.90
31991;DHT22;18508;49.386;8.370;2023-05-15T08:46:42;18.50;99.90
31991;DHT22;18508;49.386;8.370;2023-05-15T08:49:18;18.40;99.90
31991;DHT22;18508;49.386;8.370;2023-05-15T08:51:51;18.40;99.90
31991;DHT22;18508;49.386;8.370;2023-05-15T08:54:23;18.60;99.90
31991;DHT22;18508;49.386;8.370;2023-05-15T08:56:53;18.70;99.90
31991;DHT22;18508;49.386;8.370;2023-05-15T08:59:21;18.60;99.90
31991;DHT22;18508;49.386;8.370;2023-05-15T09:01:50;18.60;99.90
31991;DHT22;18508;49.386;8.370;2023-05-15T09:04:18;18.60;99.90
31991;DHT22;18508;49.386;8.370;2023-05-15T09:06:47;18.70;99.90
31991;DHT22;18508;49.386;8.370;2023-05-15T09:09:19;18.90;99.90
31991;DHT22;18508;49.386;8.370;2023-05-15T09:11:47;18.80;99.90
31991;DHT22;18508;49.386;8.370;2023-05-15T09:14:22;18.70;99.90
31991;DHT22;18508;49.386;8.370;2023-05-15T09:16:50;18.90;99.90
31991;DHT22;18508;49.386;8.370;2023-05-15T09:19:19;19.00;99.90
31991;DHT22;18508;49.386;8.370;2023-05-15T09:21:49;19.20;99.90
31991;DHT22;18508;49.386;8.370;2023-05-15T09:24:19;19.30;99.90
31991;DHT22;18508;49.386;8.370;2023-05-15T09:27:00;19.40;99.90
31991;DHT22;18508;49.386;8.370;2023-05-15T09:29:32;19.60;99.90
31991;DHT22;18508;49.386;8.370;2023-05-15T09:32:05;19.50;99.90
31991;DHT22;18508;49.386;8.370;2023-05-15T09:34:36;19.60;99.90
31991;DHT22;18508;49.386;8.370;2023-05-15T09:37:09;19.60;99.90
31991;DHT22;18508;49.386;8.370;2023-05-15T09:39:40;19.50;99.90
31991;DHT22;18508;49.386;8.370;2023-05-15T09:42:10;19.60;99.90
31991;DHT22;18508;49.386;8.370;2023-05-15T09:44:42;19.70;99.90
31991;DHT22;18508;49.386;8.370;2023-05-15T09:47:12;19.70;1.00
31991;DHT22;18508;49.386;8.370;2023-05-15T09:49:43;19.70;1.00
31991;DHT22;18508;49.386;8.370;2023-05-15T09:52:15;19.80;1.00
31991;DHT22;18508;49.386;8.370;2023-05-15T09:54:49;19.80;99.90
31991;DHT22;18508;49.386;8.370;2023-05-15T09:57:20;19.90;99.90
31991;DHT22;18508;49.386;8.370;2023-05-15T09:59:55;20.10;99.90
31991;DHT22;18508;49.386;8.370;2023-05-15T10:02:28;20.20;99.90
31991;DHT22;18508;49.386;8.370;2023-05-15T10:04:58;20.30;99.90
31991;DHT22;18508;49.386;8.370;2023-05-15T10:07:28;20.50;99.90
31991;DHT22;18508;49.386;8.370;2023-05-15T10:09:57;20.50;99.90
31991;DHT22;18508;49.386;8.370;2023-05-15T10:12:26;20.50;99.90
31991;DHT22;18508;49.386;8.370;2023-05-15T10:14:57;20.60;99.90
31991;DHT22;18508;49.386;8.370;2023-05-15T10:17:27;20.90;99.90
31991;DHT22;18508;49.386;8.370;2023-05-15T10:19:58;20.80;99.90
31991;DHT22;18508;49.386;8.370;2023-05-15T10:22:28;20.90;99.90
31991;DHT22;18508;49.386;8.370;2023-05-15T10:25:02;21.20;99.90
31991;DHT22;18508;49.386;8.370;2023-05-15T10:27:34;21.40;99.90
31991;DHT22;18508;49.386;8.370;2023-05-15T10:30:06;21.80;99.90
31991;DHT22;18508;49.386;8.370;2023-05-15T10:32:36;21.80;1.00
31991;DHT22;18508;49.386;8.370;2023-05-15T10:35:09;21.80;1.00
31991;DHT22;18508;49.386;8.370;2023-05-15T10:37:38;21.70;1.00
31991;DHT22;18508;49.386;8.370;2023-05-15T10:40:10;21.70;23.50
31991;DHT22;18508;49.386;8.370;2023-05-15T10:42:44;21.70;41.50
31991;DHT22;18508;49.386;8.370;2023-05-15T10:45:14;21.50;99.90
31991;DHT22;18508;49.386;8.370;2023-05-15T10:47:43;21.90;99.90
31991;DHT22;18508;49.386;8.370;2023-05-15T10:50:12;22.00;99.90
31991;DHT22;18508;49.386;8.370;2023-05-15T10:52:41;22.00;99.90
31991;DHT22;18508;49.386;8.370;2023-05-15T10:55:13;21.80;99.90
31991;DHT22;18508;49.386;8.370;2023-05-15T10:57:44;21.60;99.90
31991;DHT22;18508;49.386;8.370;2023-05-15T11:00:27;21.40;99.90
31991;DHT22;18508;49.386;8.370;2023-05-15T11:02:58;21.70;99.90
31991;DHT22;18508;49.386;8.370;2023-05-15T11:05:27;21.90;99.90
31991;DHT22;18508;49.386;8.370;2023-05-15T11:08:25;22.10;99.90
31991;DHT22;18508;49.386;8.370;2023-05-15T11:10:53;22.30;99.90
31991;DHT22;18508;49.386;8.370;2023-05-15T11:13:22;22.30;99.90
31991;DHT22;18508;49.386;8.370;2023-05-15T11:15:52;21.90;99.90
31991;DHT22;18508;49.386;8.370;2023-05-15T11:18:20;22.00;99.90
31991;DHT22;18508;49.386;8.370;2023-05-15T11:21:06;22.40;99.90
31991;DHT22;18508;49.386;8.370;2023-05-15T11:23:39;22.20;99.90
31991;DHT22;18508;49.386;8.370;2023-05-15T11:26:08;22.30;99.90
31991;DHT22;18508;49.386;8.370;2023-05-15T11:28:42;22.20;99.90
31991;DHT22;18508;49.386;8.370;2023-05-15T11:31:13;21.80;99.90
31991;DHT22;18508;49.386;8.370;2023-05-15T11:33:41;21.40;99.90
31991;DHT22;18508;49.386;8.370;2023-05-15T11:36:10;21.10;99.90
31991;DHT22;18508;49.386;8.370;2023-05-15T11:38:42;21.10;99.90
31991;DHT22;18508;49.386;8.370;2023-05-15T11:41:18;20.90;99.90
31991;DHT22;18508;49.386;8.370;2023-05-15T11:43:47;20.80;99.90
31991;DHT22;18508;49.386;8.370;2023-05-15T11:46:17;20.80;99.90
31991;DHT22;18508;49.386;8.370;2023-05-15T11:48:46;20.80;99.90
31991;DHT22;18508;49.386;8.370;2023-05-15T11:51:16;20.60;1.00
31991;DHT22;18508;49.386;8.370;2023-05-15T11:53:45;20.40;99.90
31991;DHT22;18508;49.386;8.370;2023-05-15T11:56:17;20.40;74.90
31991;DHT22;18508;49.386;8.370;2023-05-15T11:58:49;20.40;99.90
31991;DHT22;18508;49.386;8.370;2023-05-15T12:01:24;20.80;99.90
31991;DHT22;18508;49.386;8.370;2023-05-15T12:03:53;20.80;99.90
31991;DHT22;18508;49.386;8.370;2023-05-15T12:06:21;21.30;99.90
31991;DHT22;18508;49.386;8.370;2023-05-15T12:08:51;21.70;99.90
31991;DHT22;18508;49.386;8.370;2023-05-15T12:11:21;21.80;99.90
31991;DHT22;18508;49.386;8.370;2023-05-15T12:13:50;22.00;99.90
31991;DHT22;18508;49.386;8.370;2023-05-15T12:16:25;22.10;99.90
31991;DHT22;18508;49.386;8.370;2023-05-15T12:18:56;22.00;99.90
31991;DHT22;18508;49.386;8.370;2023-05-15T12:21:25;21.90;1.00
31991;DHT22;18508;49.386;8.370;2023-05-15T12:23:56;21.90;1.00
31991;DHT22;18508;49.386;8.370;2023-05-15T12:26:34;22.00;1.00
31991;DHT22;18508;49.386;8.370;2023-05-15T12:29:02;21.80;1.00
31991;DHT22;18508;49.386;8.370;2023-05-15T12:31:34;21.70;1.00
31991;DHT22;18508;49.386;8.370;2023-05-15T12:34:03;21.70;1.00
31991;DHT22;18508;49.386;8.370;2023-05-15T12:36:32;21.70;1.00
31991;DHT22;18508;49.386;8.370;2023-05-15T12:39:04;21.30;1.00
31991;DHT22;18508;49.386;8.370;2023-05-15T12:41:33;21.50;1.00
31991;DHT22;18508;49.386;8.370;2023-05-15T12:44:03;21.50;1.00
31991;DHT22;18508;49.386;8.370;2023-05-15T12:46:33;21.90;1.00
31991;DHT22;18508;49.386;8.370;2023-05-15T12:49:01;22.10;99.90
31991;DHT22;18508;49.386;8.370;2023-05-15T12:51:29;22.30;99.90
31991;DHT22;18508;49.386;8.370;2023-05-15T12:53:58;22.30;1.00
31991;DHT22;18508;49.386;8.370;2023-05-15T12:56:28;22.40;1.00
31991;DHT22;18508;49.386;8.370;2023-05-15T12:58:56;22.70;1.00
31991;DHT22;18508;49.386;8.370;2023-05-15T13:01:25;22.50;1.00
31991;DHT22;18508;49.386;8.370;2023-05-15T13:03:55;22.60;1.00
31991;DHT22;18508;49.386;8.370;2023-05-15T13:06:23;22.80;1.00
31991;DHT22;18508;49.386;8.370;2023-05-15T13:09:11;23.00;1.00
31991;DHT22;18508;49.386;8.370;2023-05-15T13:11:42;23.00;1.00
31991;DHT22;18508;49.386;8.370;2023-05-15T13:14:10;22.90;1.00
31991;DHT22;18508;49.386;8.370;2023-05-15T13:16:44;22.80;95.50
31991;DHT22;18508;49.386;8.370;2023-05-15T13:19:14;23.00;99.90
31991;DHT22;18508;49.386;8.370;2023-05-15T13:21:43;23.10;99.90
31991;DHT22;18508;49.386;8.370;2023-05-15T13:24:16;23.50;99.90
31991;DHT22;18508;49.386;8.370;2023-05-15T13:26:44;23.70;99.90
31991;DHT22;18508;49.386;8.370;2023-05-15T13:29:12;23.50;99.90
31991;DHT22;18508;49.386;8.370;2023-05-15T13:31:40;24.00;99.90
31991;DHT22;18508;49.386;8.370;2023-05-15T13:34:09;24.20;99.90
31991;DHT22;18508;49.386;8.370;2023-05-15T13:36:41;24.70;99.90
31991;DHT22;18508;49.386;8.370;2023-05-15T13:39:10;24.80;99.90
31991;DHT22;18508;49.386;8.370;2023-05-15T13:41:38;25.20;99.90
31991;DHT22;18508;49.386;8.370;2023-05-15T13:44:07;25.50;99.90
31991;DHT22;18508;49.386;8.370;2023-05-15T13:46:35;25.90;99.90
31991;DHT22;18508;49.386;8.370;2023-05-15T13:49:04;25.90;99.90
31991;DHT22;18508;49.386;8.370;2023-05-15T13:51:33;26.50;99.90
31991;DHT22;18508;49.386;8.370;2023-05-15T13:54:02;26.60;99.90
31991;DHT22;18508;49.386;8.370;2023-05-15T13:56:31;26.40;99.90
31991;DHT22;18508;49.386;8.370;2023-05-15T13:58:59;26.20;99.90
31991;DHT22;18508;49.386;8.370;2023-05-15T14:01:27;26.80;99.90
31991;DHT22;18508;49.386;8.370;2023-05-15T14:03:55;27.10;99.90
31991;DHT22;18508;49.386;8.370;2023-05-15T14:06:24;27.10;99.90
31991;DHT22;18508;49.386;8.370;2023-05-15T14:08:59;27.60;99.90
31991;DHT22;18508;49.386;8.370;2023-05-15T14:11:29;28.00;99.90
31991;DHT22;18508;49.386;8.370;2023-05-15T14:13:57;27.40;99.90
31991;DHT22;18508;49.386;8.370;2023-05-15T14:16:25;27.40;99.90
31991;DHT22;18508;49.386;8.370;2023-05-15T14:18:53;26.70;99.90
31991;DHT22;18508;49.386;8.370;2023-05-15T14:21:22;26.60;99.90
31991;DHT22;18508;49.386;8.370;2023-05-15T14:23:50;26.30;99.90
31991;DHT22;18508;49.386;8.370;2023-05-15T14:26:18;25.60;99.90
31991;DHT22;18508;49.386;8.370;2023-05-15T14:28:49;25.00;99.90
31991;DHT22;18508;49.386;8.370;2023-05-15T14:31:17;24.80;99.90
31991;DHT22;18508;49.386;8.370;2023-05-15T14:33:45;24.20;99.90
31991;DHT22;18508;49.386;8.370;2023-05-15T14:36:13;23.50;99.90
31991;DHT22;18508;49.386;8.370;2023-05-15T14:38:41;23.80;99.90
31991;DHT22;18508;49.386;8.370;2023-05-15T14:41:11;24.60;99.90
31991;DHT22;18508;49.386;8.370;2023-05-15T14:43:39;24.30;99.90
31991;DHT22;18508;49.386;8.370;2023-05-15T14:46:09;24.30;99.90
31991;DHT22;18508;49.386;8.370;2023-05-15T14:48:37;25.60;99.90
31991;DHT22;18508;49.386;8.370;2023-05-15T14:51:05;26.30;99.90
31991;DHT22;18508;49.386;8.370;2023-05-15T14:53:34;27.10;99.90
31991;DHT22;18508;49.386;8.370;2023-05-15T14:56:03;27.20;99.90
31991;DHT22;18508;49.386;8.370;2023-05-15T14:58:32;26.60;99.90
31991;DHT22;18508;49.386;8.370;2023-05-15T15:01:01;26.30;99.90
31991;DHT22;18508;49.386;8.370;2023-05-15T15:03:31;25.00;99.90
31991;DHT22;18508;49.386;8.370;2023-05-15T15:06:03;24.50;99.90
31991;DHT22;18508;49.386;8.370;2023-05-15T15:08:31;24.30;99.90
31991;DHT22;18508;49.386;8.370;2023-05-15T15:11:03;24.10;99.90
31991;DHT22;18508;49.386;8.370;2023-05-15T15:13:31;23.90;99.90
31991;DHT22;18508;49.386;8.370;2023-05-15T15:16:03;23.70;99.90
31991;DHT22;18508;49.386;8.370;2023-05-15T15:18:36;23.50;99.90
31991;DHT22;18508;49.386;8.370;2023-05-15T15:21:04;23.30;99.90
31991;DHT22;18508;49.386;8.370;2023-05-15T15:23:32;23.20;99.90
31991;DHT22;18508;49.386;8.370;2023-05-15T15:26:00;23.10;99.90
31991;DHT22;18508;49.386;8.370;2023-05-15T15:28:31;22.70;99.90
31991;DHT22;18508;49.386;8.370;2023-05-15T15:30:59;22.60;99.90
31991;DHT22;18508;49.386;8.370;2023-05-15T15:33:27;22.00;99.90
31991;DHT22;18508;49.386;8.370;2023-05-15T15:35:58;21.20;43.50
31991;DHT22;18508;49.386;8.370;2023-05-15T15:38:27;20.60;1.00
31991;DHT22;18508;49.386;8.370;2023-05-15T15:40:55;20.30;1.00
31991;DHT22;18508;49.386;8.370;2023-05-15T15:43:23;19.80;99.90
31991;DHT22;18508;49.386;8.370;2023-05-15T15:45:52;19.70;99.90
31991;DHT22;18508;49.386;8.370;2023-05-15T15:48:21;19.60;1.00
31991;DHT22;18508;49.386;8.370;2023-05-15T15:50:49;19.60;1.00
31991;DHT22;18508;49.386;8.370;2023-05-15T15:53:20;19.60;1.00
31991;DHT22;18508;49.386;8.370;2023-05-15T15:55:48;19.30;1.00